sensor_id;sensor_type;location;lat;lon;timestamp;P1;durP1;ratioP1;P2;durP2;ratioP2
1206;SDS011;593;53.184;8.216;2023-02-12T00:02:14;11.73;;;6.60;;
1206;SDS011;593;53.184;8.216;2023-02-12T00:04:39;11.53;;;5.87;;
1206;SDS011;593;53.184;8.216;2023-02-12T00:07:05;11.37;;;6.60;;
1206;SDS011;593;53.184;8.216;2023-02-12T00:09:30;9.33;;;6.97;;
1206;SDS011;593;53.184;8.216;2023-02-12T00:11:56;13.27;;;7.47;;
1206;SDS011;593;53.184;8.216;2023-02-12T00:14:21;9.77;;;6.73;;
1206;SDS011;593;53.184;8.216;2023-02-12T00:16:46;10.30;;;7.40;;
1206;SDS011;593;53.184;8.216;2023-02-12T00:19:12;10.03;;;6.90;;
1206;SDS011;593;53.184;8.216;2023-02-12T00:21:37;14.03;;;7.20;;
1206;SDS011;593;53.184;8.216;2023-02-12T00:24:02;15.70;;;6.57;;
1206;SDS011;593;53.184;8.216;2023-02-12T00:26:28;9.50;;;7.30;;
1206;SDS011;593;53.184;8.216;2023-02-12T00:28:53;17.20;;;7.40;;
1206;SDS011;593;53.184;8.216;2023-02-12T00:31:20;12.07;;;8.10;;
1206;SDS011;593;53.184;8.216;2023-02-12T00:33:48;10.13;;;6.45;;
1206;SDS011;593;53.184;8.216;2023-02-12T00:36:15;7.87;;;6.53;;
1206;SDS011;593;53.184;8.216;2023-02-12T00:38:42;14.27;;;5.65;;
1206;SDS011;593;53.184;8.216;2023-02-12T00:41:08;11.50;;;5.60;;
1206;SDS011;593;53.184;8.216;2023-02-12T00:43:33;7.37;;;5.80;;
1206;SDS011;593;53.184;8.216;2023-02-12T00:45:59;7.40;;;5.43;;
1206;SDS011;593;53.184;8.216;2023-02-12T00:48:24;7.33;;;6.30;;
1206;SDS011;593;53.184;8.216;2023-02-12T00:50:50;6.78;;;6.07;;
1206;SDS011;593;53.184;8.216;2023-02-12T00:53:16;12.43;;;7.10;;
1206;SDS011;593;53.184;8.216;2023-02-12T00:55:41;8.30;;;6.43;;
1206;SDS011;593;53.184;8.216;2023-02-12T00:58:07;11.10;;;5.50;;
1206;SDS011;593;53.184;8.216;2023-02-12T01:00:33;8.93;;;6.70;;
1206;SDS011;593;53.184;8.216;2023-02-12T01:02:58;9.83;;;6.57;;
1206;SDS011;593;53.184;8.216;2023-02-12T01:05:24;6.77;;;5.67;;
1206;SDS011;593;53.184;8.216;2023-02-12T01:07:50;8.07;;;6.00;;
1206;SDS011;593;53.184;8.216;2023-02-12T01:10:16;6.90;;;6.00;;
1206;SDS011;593;53.184;8.216;2023-02-12T01:12:42;11.67;;;6.87;;
1206;SDS011;593;53.184;8.216;2023-02-12T01:15:07;11.33;;;6.40;;
1206;SDS011;593;53.184;8.216;2023-02-12T01:17:36;11.55;;;6.25;;
1206;SDS011;593;53.184;8.216;2023-02-12T01:20:02;10.40;;;6.20;;
1206;SDS011;593;53.184;8.216;2023-02-12T01:22:31;8.38;;;6.13;;
1206;SDS011;593;53.184;8.216;2023-02-12T01:24:58;11.18;;;7.00;;
1206;SDS011;593;53.184;8.216;2023-02-12T01:27:23;8.07;;;6.50;;
1206;SDS011;593;53.184;8.216;2023-02-12T01:29:48;7.80;;;6.27;;
1206;SDS011;593;53.184;8.216;2023-02-12T01:32:14;9.97;;;7.00;;
1206;SDS011;593;53.184;8.216;2023-02-12T01:34:39;8.53;;;6.97;;
1206;SDS011;593;53.184;8.216;2023-02-12T01:37:04;12.63;;;7.00;;
1206;SDS011;593;53.184;8.216;2023-02-12T01:39:30;7.63;;;6.73;;
1206;SDS011;593;53.184;8.216;2023-02-12T01:41:55;9.93;;;7.03;;
1206;SDS011;593;53.184;8.216;2023-02-12T01:44:24;11.50;;;7.63;;
1206;SDS011;593;53.184;8.216;2023-02-12T01:46:54;8.63;;;6.40;;
1206;SDS011;593;53.184;8.216;2023-02-12T01:49:40;9.52;;;7.07;;
1206;SDS011;593;53.184;8.216;2023-02-12T01:52:12;8.93;;;6.78;;
1206;SDS011;593;53.184;8.216;2023-02-12T01:54:44;7.93;;;6.35;;
1206;SDS011;593;53.184;8.216;2023-02-12T01:57:10;13.17;;;5.97;;
1206;SDS011;593;53.184;8.216;2023-02-12T01:59:39;11.57;;;6.30;;
1206;SDS011;593;53.184;8.216;2023-02-12T02:02:07;8.25;;;6.88;;
1206;SDS011;593;53.184;8.216;2023-02-12T02:04:35;14.43;;;6.70;;
1206;SDS011;593;53.184;8.216;2023-02-12T02:07:07;8.00;;;6.10;;
1206;SDS011;593;53.184;8.216;2023-02-12T02:09:35;8.93;;;6.50;;
1206;SDS011;593;53.184;8.216;2023-02-12T02:12:02;9.77;;;6.35;;
1206;SDS011;593;53.184;8.216;2023-02-12T02:14:46;8.75;;;6.18;;
1206;SDS011;593;53.184;8.216;2023-02-12T02:20:00;12.40;;;6.30;;
1206;SDS011;593;53.184;8.216;2023-02-12T02:23:07;11.38;;;6.72;;
1206;SDS011;593;53.184;8.216;2023-02-12T02:39:04;13.13;;;8.15;;
1206;SDS011;593;53.184;8.216;2023-02-12T02:41:39;10.95;;;8.00;;
1206;SDS011;593;53.184;8.216;2023-02-12T02:44:33;11.40;;;8.15;;
1206;SDS011;593;53.184;8.216;2023-02-12T02:47:03;9.60;;;7.38;;
1206;SDS011;593;53.184;8.216;2023-02-12T02:49:38;11.88;;;8.10;;
1206;SDS011;593;53.184;8.216;2023-02-12T02:52:13;10.77;;;8.68;;
1206;SDS011;593;53.184;8.216;2023-02-12T02:54:44;10.48;;;7.45;;
1206;SDS011;593;53.184;8.216;2023-02-12T02:57:15;13.00;;;7.82;;
1206;SDS011;593;53.184;8.216;2023-02-12T02:59:48;11.27;;;8.77;;
1206;SDS011;593;53.184;8.216;2023-02-12T03:02:22;11.77;;;8.15;;
1206;SDS011;593;53.184;8.216;2023-02-12T03:05:07;9.68;;;7.53;;
1206;SDS011;593;53.184;8.216;2023-02-12T03:08:02;10.70;;;7.63;;
1206;SDS011;593;53.184;8.216;2023-02-12T03:10:30;10.75;;;7.50;;
1206;SDS011;593;53.184;8.216;2023-02-12T03:13:07;9.82;;;6.45;;
1206;SDS011;593;53.184;8.216;2023-02-12T03:15:37;10.90;;;7.75;;
1206;SDS011;593;53.184;8.216;2023-02-12T03:18:08;14.23;;;8.32;;
1206;SDS011;593;53.184;8.216;2023-02-12T03:20:41;9.45;;;7.68;;
1206;SDS011;593;53.184;8.216;2023-02-12T03:23:11;15.80;;;9.15;;
1206;SDS011;593;53.184;8.216;2023-02-12T03:25:48;12.93;;;7.93;;
1206;SDS011;593;53.184;8.216;2023-02-12T03:28:19;12.98;;;7.60;;
1206;SDS011;593;53.184;8.216;2023-02-12T03:33:41;16.23;;;9.07;;
1206;SDS011;593;53.184;8.216;2023-02-12T03:39:10;14.05;;;8.20;;
1206;SDS011;593;53.184;8.216;2023-02-12T03:41:45;14.07;;;8.05;;
1206;SDS011;593;53.184;8.216;2023-02-12T03:47:13;13.73;;;8.02;;
1206;SDS011;593;53.184;8.216;2023-02-12T03:52:51;8.95;;;6.97;;
1206;SDS011;593;53.184;8.216;2023-02-12T03:55:17;12.30;;;8.50;;
1206;SDS011;593;53.184;8.216;2023-02-12T03:57:44;12.30;;;8.80;;
1206;SDS011;593;53.184;8.216;2023-02-12T04:00:16;12.20;;;8.10;;
1206;SDS011;593;53.184;8.216;2023-02-12T04:02:44;14.32;;;9.90;;
1206;SDS011;593;53.184;8.216;2023-02-12T04:05:21;16.50;;;9.67;;
1206;SDS011;593;53.184;8.216;2023-02-12T04:07:50;16.13;;;10.90;;
1206;SDS011;593;53.184;8.216;2023-02-12T04:10:17;14.27;;;9.27;;
1206;SDS011;593;53.184;8.216;2023-02-12T04:15:50;16.13;;;9.10;;
1206;SDS011;593;53.184;8.216;2023-02-12T04:18:20;17.15;;;10.32;;
1206;SDS011;593;53.184;8.216;2023-02-12T04:20:53;18.92;;;10.00;;
1206;SDS011;593;53.184;8.216;2023-02-12T04:23:33;16.85;;;9.38;;
1206;SDS011;593;53.184;8.216;2023-02-12T04:26:17;18.55;;;10.18;;
1206;SDS011;593;53.184;8.216;2023-02-12T04:29:24;15.20;;;10.38;;
1206;SDS011;593;53.184;8.216;2023-02-12T04:31:57;16.95;;;9.15;;
1206;SDS011;593;53.184;8.216;2023-02-12T04:37:41;16.52;;;9.77;;
1206;SDS011;593;53.184;8.216;2023-02-12T04:40:13;14.18;;;8.38;;
1206;SDS011;593;53.184;8.216;2023-02-12T04:42:41;17.50;;;11.10;;
1206;SDS011;593;53.184;8.216;2023-02-12T04:45:09;21.85;;;9.90;;
1206;SDS011;593;53.184;8.216;2023-02-12T04:47:36;17.85;;;10.57;;
1206;SDS011;593;53.184;8.216;2023-02-12T04:50:02;17.57;;;10.47;;
1206;SDS011;593;53.184;8.216;2023-02-12T04:52:27;17.80;;;9.87;;
1206;SDS011;593;53.184;8.216;2023-02-12T04:54:53;21.17;;;10.10;;
1206;SDS011;593;53.184;8.216;2023-02-12T04:57:18;17.20;;;11.27;;
1206;SDS011;593;53.184;8.216;2023-02-12T04:59:43;18.03;;;9.63;;
1206;SDS011;593;53.184;8.216;2023-02-12T05:02:09;20.33;;;10.93;;
1206;SDS011;593;53.184;8.216;2023-02-12T05:04:34;17.37;;;10.20;;
1206;SDS011;593;53.184;8.216;2023-02-12T05:06:59;17.27;;;9.90;;
1206;SDS011;593;53.184;8.216;2023-02-12T05:09:25;21.40;;;10.67;;
1206;SDS011;593;53.184;8.216;2023-02-12T05:11:51;19.13;;;10.43;;
1206;SDS011;593;53.184;8.216;2023-02-12T05:14:16;16.63;;;8.87;;
1206;SDS011;593;53.184;8.216;2023-02-12T05:16:42;18.73;;;9.30;;
1206;SDS011;593;53.184;8.216;2023-02-12T05:19:07;13.77;;;9.87;;
1206;SDS011;593;53.184;8.216;2023-02-12T05:21:33;18.52;;;10.75;;
1206;SDS011;593;53.184;8.216;2023-02-12T05:24:00;18.93;;;10.00;;
1206;SDS011;593;53.184;8.216;2023-02-12T05:26:26;15.52;;;9.40;;
1206;SDS011;593;53.184;8.216;2023-02-12T05:28:52;17.20;;;10.77;;
1206;SDS011;593;53.184;8.216;2023-02-12T05:31:18;17.50;;;10.40;;
1206;SDS011;593;53.184;8.216;2023-02-12T05:33:45;19.48;;;10.82;;
1206;SDS011;593;53.184;8.216;2023-02-12T05:36:13;21.35;;;11.13;;
1206;SDS011;593;53.184;8.216;2023-02-12T05:38:41;15.00;;;10.55;;
1206;SDS011;593;53.184;8.216;2023-02-12T05:41:08;17.17;;;10.77;;
1206;SDS011;593;53.184;8.216;2023-02-12T05:43:35;19.65;;;12.48;;
1206;SDS011;593;53.184;8.216;2023-02-12T05:46:02;17.50;;;10.20;;
1206;SDS011;593;53.184;8.216;2023-02-12T05:48:28;14.35;;;8.88;;
1206;SDS011;593;53.184;8.216;2023-02-12T05:51:05;18.05;;;11.05;;
1206;SDS011;593;53.184;8.216;2023-02-12T05:53:35;18.05;;;11.25;;
1206;SDS011;593;53.184;8.216;2023-02-12T05:58:41;19.15;;;12.05;;
1206;SDS011;593;53.184;8.216;2023-02-12T06:01:15;17.50;;;9.70;;
1206;SDS011;593;53.184;8.216;2023-02-12T06:03:41;19.27;;;10.75;;
1206;SDS011;593;53.184;8.216;2023-02-12T06:06:07;17.15;;;9.85;;
1206;SDS011;593;53.184;8.216;2023-02-12T06:08:33;16.87;;;10.60;;
1206;SDS011;593;53.184;8.216;2023-02-12T06:10:59;16.30;;;11.00;;
1206;SDS011;593;53.184;8.216;2023-02-12T06:13:26;19.63;;;10.70;;
1206;SDS011;593;53.184;8.216;2023-02-12T06:15:51;12.80;;;9.50;;
1206;SDS011;593;53.184;8.216;2023-02-12T06:18:16;18.43;;;11.50;;
1206;SDS011;593;53.184;8.216;2023-02-12T06:20:42;17.20;;;9.30;;
1206;SDS011;593;53.184;8.216;2023-02-12T06:23:07;14.20;;;9.07;;
1206;SDS011;593;53.184;8.216;2023-02-12T06:25:32;18.60;;;11.53;;
1206;SDS011;593;53.184;8.216;2023-02-12T06:27:58;17.90;;;9.50;;
1206;SDS011;593;53.184;8.216;2023-02-12T06:30:23;18.83;;;10.63;;
1206;SDS011;593;53.184;8.216;2023-02-12T06:32:49;18.30;;;9.87;;
1206;SDS011;593;53.184;8.216;2023-02-12T06:35:14;14.10;;;9.47;;
1206;SDS011;593;53.184;8.216;2023-02-12T06:37:40;24.13;;;11.20;;
1206;SDS011;593;53.184;8.216;2023-02-12T06:40:05;18.03;;;10.80;;
1206;SDS011;593;53.184;8.216;2023-02-12T06:42:31;16.37;;;10.30;;
1206;SDS011;593;53.184;8.216;2023-02-12T06:44:56;15.03;;;10.37;;
1206;SDS011;593;53.184;8.216;2023-02-12T06:47:22;18.53;;;10.03;;
1206;SDS011;593;53.184;8.216;2023-02-12T06:49:47;18.60;;;9.60;;
1206;SDS011;593;53.184;8.216;2023-02-12T06:52:12;15.90;;;10.17;;
1206;SDS011;593;53.184;8.216;2023-02-12T06:54:38;16.63;;;9.97;;
1206;SDS011;593;53.184;8.216;2023-02-12T06:57:03;19.83;;;11.60;;
1206;SDS011;593;53.184;8.216;2023-02-12T06:59:29;20.07;;;10.90;;
1206;SDS011;593;53.184;8.216;2023-02-12T07:01:54;15.67;;;10.60;;
1206;SDS011;593;53.184;8.216;2023-02-12T07:04:19;17.73;;;10.90;;
1206;SDS011;593;53.184;8.216;2023-02-12T07:06:45;20.00;;;11.57;;
1206;SDS011;593;53.184;8.216;2023-02-12T07:09:10;18.60;;;11.23;;
1206;SDS011;593;53.184;8.216;2023-02-12T07:11:36;18.70;;;11.33;;
1206;SDS011;593;53.184;8.216;2023-02-12T07:14:01;22.67;;;13.23;;
1206;SDS011;593;53.184;8.216;2023-02-12T07:16:27;20.00;;;11.10;;
1206;SDS011;593;53.184;8.216;2023-02-12T07:18:52;20.13;;;11.53;;
1206;SDS011;593;53.184;8.216;2023-02-12T07:21:18;18.10;;;11.07;;
1206;SDS011;593;53.184;8.216;2023-02-12T07:23:45;18.35;;;11.25;;
1206;SDS011;593;53.184;8.216;2023-02-12T07:26:12;22.73;;;12.48;;
1206;SDS011;593;53.184;8.216;2023-02-12T07:28:39;15.63;;;10.27;;
1206;SDS011;593;53.184;8.216;2023-02-12T07:31:08;17.03;;;9.80;;
1206;SDS011;593;53.184;8.216;2023-02-12T07:33:36;15.60;;;10.73;;
1206;SDS011;593;53.184;8.216;2023-02-12T07:36:02;14.55;;;9.73;;
1206;SDS011;593;53.184;8.216;2023-02-12T07:38:29;17.48;;;9.98;;
1206;SDS011;593;53.184;8.216;2023-02-12T07:40:55;16.40;;;10.60;;
1206;SDS011;593;53.184;8.216;2023-02-12T07:43:23;18.77;;;10.85;;
1206;SDS011;593;53.184;8.216;2023-02-12T07:45:48;20.07;;;10.97;;
1206;SDS011;593;53.184;8.216;2023-02-12T07:48:14;17.47;;;11.03;;
1206;SDS011;593;53.184;8.216;2023-02-12T07:50:39;16.50;;;9.83;;
1206;SDS011;593;53.184;8.216;2023-02-12T07:53:04;15.70;;;9.40;;
1206;SDS011;593;53.184;8.216;2023-02-12T07:55:30;15.90;;;10.07;;
1206;SDS011;593;53.184;8.216;2023-02-12T07:57:55;17.27;;;10.57;;
1206;SDS011;593;53.184;8.216;2023-02-12T08:00:21;14.03;;;8.90;;
1206;SDS011;593;53.184;8.216;2023-02-12T08:02:50;13.37;;;9.07;;
1206;SDS011;593;53.184;8.216;2023-02-12T08:05:17;13.68;;;7.93;;
1206;SDS011;593;53.184;8.216;2023-02-12T08:07:42;11.33;;;7.37;;
1206;SDS011;593;53.184;8.216;2023-02-12T08:10:07;11.93;;;7.80;;
1206;SDS011;593;53.184;8.216;2023-02-12T08:12:33;10.43;;;8.43;;
1206;SDS011;593;53.184;8.216;2023-02-12T08:14:59;13.27;;;7.30;;
1206;SDS011;593;53.184;8.216;2023-02-12T08:17:24;12.87;;;8.00;;
1206;SDS011;593;53.184;8.216;2023-02-12T08:19:49;9.13;;;7.00;;
1206;SDS011;593;53.184;8.216;2023-02-12T08:22:15;9.87;;;7.33;;
1206;SDS011;593;53.184;8.216;2023-02-12T08:24:40;8.00;;;6.17;;
1206;SDS011;593;53.184;8.216;2023-02-12T08:27:06;7.07;;;5.45;;
1206;SDS011;593;53.184;8.216;2023-02-12T08:29:32;9.90;;;6.13;;
1206;SDS011;593;53.184;8.216;2023-02-12T08:32:01;8.97;;;6.13;;
1206;SDS011;593;53.184;8.216;2023-02-12T08:34:31;9.15;;;6.53;;
1206;SDS011;593;53.184;8.216;2023-02-12T08:36:58;10.75;;;5.70;;
1206;SDS011;593;53.184;8.216;2023-02-12T08:39:25;6.00;;;4.50;;
1206;SDS011;593;53.184;8.216;2023-02-12T08:41:55;6.07;;;4.70;;
1206;SDS011;593;53.184;8.216;2023-02-12T08:44:21;4.80;;;4.30;;
1206;SDS011;593;53.184;8.216;2023-02-12T08:46:48;5.13;;;3.97;;
1206;SDS011;593;53.184;8.216;2023-02-12T08:49:17;6.55;;;4.78;;
1206;SDS011;593;53.184;8.216;2023-02-12T08:51:44;5.00;;;4.50;;
1206;SDS011;593;53.184;8.216;2023-02-12T08:54:14;5.80;;;5.18;;
1206;SDS011;593;53.184;8.216;2023-02-12T08:56:42;6.05;;;5.45;;
1206;SDS011;593;53.184;8.216;2023-02-12T08:59:09;5.55;;;4.60;;
1206;SDS011;593;53.184;8.216;2023-02-12T09:01:36;7.93;;;5.18;;
1206;SDS011;593;53.184;8.216;2023-02-12T09:04:03;5.13;;;3.97;;
1206;SDS011;593;53.184;8.216;2023-02-12T09:06:31;4.60;;;4.10;;
1206;SDS011;593;53.184;8.216;2023-02-12T09:08:57;6.57;;;4.82;;
1206;SDS011;593;53.184;8.216;2023-02-12T09:11:27;6.20;;;5.07;;
1206;SDS011;593;53.184;8.216;2023-02-12T09:13:57;5.57;;;4.50;;
1206;SDS011;593;53.184;8.216;2023-02-12T09:16:25;5.50;;;4.78;;
1206;SDS011;593;53.184;8.216;2023-02-12T09:18:52;4.93;;;4.53;;
1206;SDS011;593;53.184;8.216;2023-02-12T09:21:19;7.82;;;5.50;;
1206;SDS011;593;53.184;8.216;2023-02-12T09:23:45;6.13;;;5.53;;
1206;SDS011;593;53.184;8.216;2023-02-12T09:26:12;5.18;;;4.68;;
1206;SDS011;593;53.184;8.216;2023-02-12T09:28:39;7.85;;;6.35;;
1206;SDS011;593;53.184;8.216;2023-02-12T09:31:06;7.50;;;6.67;;
1206;SDS011;593;53.184;8.216;2023-02-12T09:33:36;9.60;;;6.55;;
1206;SDS011;593;53.184;8.216;2023-02-12T09:36:05;5.90;;;5.17;;
1206;SDS011;593;53.184;8.216;2023-02-12T09:38:33;5.47;;;4.90;;
1206;SDS011;593;53.184;8.216;2023-02-12T09:43:39;4.45;;;3.95;;
1206;SDS011;593;53.184;8.216;2023-02-12T09:46:44;5.13;;;4.47;;
1206;SDS011;593;53.184;8.216;2023-02-12T09:51:35;8.18;;;4.68;;
1206;SDS011;593;53.184;8.216;2023-02-12T09:54:05;5.47;;;4.60;;
1206;SDS011;593;53.184;8.216;2023-02-12T09:56:37;8.35;;;4.60;;
1206;SDS011;593;53.184;8.216;2023-02-12T09:59:06;5.38;;;4.88;;
1206;SDS011;593;53.184;8.216;2023-02-12T10:01:32;5.50;;;4.72;;
1206;SDS011;593;53.184;8.216;2023-02-12T10:03:58;5.80;;;5.20;;
1206;SDS011;593;53.184;8.216;2023-02-12T10:06:25;6.83;;;5.07;;
1206;SDS011;593;53.184;8.216;2023-02-12T10:09:14;4.53;;;4.10;;
1206;SDS011;593;53.184;8.216;2023-02-12T10:11:56;5.78;;;4.13;;
1206;SDS011;593;53.184;8.216;2023-02-12T10:20:08;3.95;;;3.25;;
1206;SDS011;593;53.184;8.216;2023-02-12T10:27:56;4.18;;;3.50;;
1206;SDS011;593;53.184;8.216;2023-02-12T10:30:30;8.15;;;3.80;;
1206;SDS011;593;53.184;8.216;2023-02-12T10:33:02;4.38;;;3.50;;
1206;SDS011;593;53.184;8.216;2023-02-12T10:35:31;3.00;;;2.70;;
1206;SDS011;593;53.184;8.216;2023-02-12T10:38:13;3.75;;;2.60;;
1206;SDS011;593;53.184;8.216;2023-02-12T10:40:45;3.33;;;2.78;;
1206;SDS011;593;53.184;8.216;2023-02-12T10:43:11;3.33;;;2.47;;
1206;SDS011;593;53.184;8.216;2023-02-12T10:45:38;2.88;;;2.55;;
1206;SDS011;593;53.184;8.216;2023-02-12T10:48:28;3.55;;;2.85;;
1206;SDS011;593;53.184;8.216;2023-02-12T10:51:10;2.58;;;2.38;;
1206;SDS011;593;53.184;8.216;2023-02-12T10:53:42;2.50;;;2.28;;
1206;SDS011;593;53.184;8.216;2023-02-12T10:56:21;2.30;;;2.10;;
1206;SDS011;593;53.184;8.216;2023-02-12T11:04:18;2.85;;;2.28;;
1206;SDS011;593;53.184;8.216;2023-02-12T11:06:58;2.58;;;2.33;;
1206;SDS011;593;53.184;8.216;2023-02-12T11:09:45;1.92;;;1.73;;
1206;SDS011;593;53.184;8.216;2023-02-12T11:14:58;3.38;;;2.10;;
1206;SDS011;593;53.184;8.216;2023-02-12T11:17:37;2.90;;;2.53;;
1206;SDS011;593;53.184;8.216;2023-02-12T11:22:33;2.70;;;2.20;;
1206;SDS011;593;53.184;8.216;2023-02-12T11:24:59;2.43;;;2.23;;
1206;SDS011;593;53.184;8.216;2023-02-12T11:27:32;2.03;;;1.83;;
1206;SDS011;593;53.184;8.216;2023-02-12T11:32:38;1.90;;;1.20;;
1206;SDS011;593;53.184;8.216;2023-02-12T11:37:39;3.15;;;2.50;;
1206;SDS011;593;53.184;8.216;2023-02-12T11:40:14;2.40;;;2.13;;
1206;SDS011;593;53.184;8.216;2023-02-12T11:42:41;3.78;;;3.03;;
1206;SDS011;593;53.184;8.216;2023-02-12T11:45:15;2.95;;;2.70;;
1206;SDS011;593;53.184;8.216;2023-02-12T11:47:43;4.65;;;3.28;;
1206;SDS011;593;53.184;8.216;2023-02-12T11:50:22;4.07;;;3.50;;
1206;SDS011;593;53.184;8.216;2023-02-12T11:52:50;5.13;;;4.18;;
1206;SDS011;593;53.184;8.216;2023-02-12T11:57:53;4.40;;;3.90;;
1206;SDS011;593;53.184;8.216;2023-02-12T12:00:36;7.07;;;5.03;;
1206;SDS011;593;53.184;8.216;2023-02-12T12:03:20;6.30;;;4.47;;
1206;SDS011;593;53.184;8.216;2023-02-12T12:05:48;10.23;;;5.38;;
1206;SDS011;593;53.184;8.216;2023-02-12T12:08:21;7.38;;;5.15;;
1206;SDS011;593;53.184;8.216;2023-02-12T12:11:10;8.32;;;6.50;;
1206;SDS011;593;53.184;8.216;2023-02-12T12:13:51;8.93;;;7.40;;
1206;SDS011;593;53.184;8.216;2023-02-12T12:19:24;10.23;;;7.05;;
1206;SDS011;593;53.184;8.216;2023-02-12T12:22:15;10.70;;;6.82;;
1206;SDS011;593;53.184;8.216;2023-02-12T12:25:07;8.80;;;5.90;;
1206;SDS011;593;53.184;8.216;2023-02-12T12:27:43;6.03;;;5.43;;
1206;SDS011;593;53.184;8.216;2023-02-12T12:30:39;7.15;;;4.85;;
1206;SDS011;593;53.184;8.216;2023-02-12T12:33:16;7.97;;;5.65;;
1206;SDS011;593;53.184;8.216;2023-02-12T12:38:27;9.98;;;6.93;;
1206;SDS011;593;53.184;8.216;2023-02-12T12:41:10;8.00;;;6.35;;
1206;SDS011;593;53.184;8.216;2023-02-12T12:43:47;11.93;;;7.70;;
1206;SDS011;593;53.184;8.216;2023-02-12T12:46:26;9.60;;;6.07;;
1206;SDS011;593;53.184;8.216;2023-02-12T12:49:12;11.52;;;6.93;;
1206;SDS011;593;53.184;8.216;2023-02-12T13:08:07;13.93;;;8.63;;
1206;SDS011;593;53.184;8.216;2023-02-12T13:13:43;14.35;;;8.75;;
1206;SDS011;593;53.184;8.216;2023-02-12T13:16:27;11.95;;;7.78;;
1206;SDS011;593;53.184;8.216;2023-02-12T13:26:55;11.93;;;7.90;;
1206;SDS011;593;53.184;8.216;2023-02-12T13:31:51;14.77;;;7.97;;
1206;SDS011;593;53.184;8.216;2023-02-12T13:34:36;10.38;;;6.60;;
1206;SDS011;593;53.184;8.216;2023-02-12T13:37:03;10.10;;;7.22;;
1206;SDS011;593;53.184;8.216;2023-02-12T13:39:34;14.20;;;7.82;;
1206;SDS011;593;53.184;8.216;2023-02-12T13:44:32;10.10;;;6.93;;
1206;SDS011;593;53.184;8.216;2023-02-12T13:47:07;12.35;;;7.72;;
1206;SDS011;593;53.184;8.216;2023-02-12T13:52:16;11.37;;;7.20;;
1206;SDS011;593;53.184;8.216;2023-02-12T13:57:37;8.98;;;6.30;;
1206;SDS011;593;53.184;8.216;2023-02-12T14:00:03;11.50;;;7.57;;
1206;SDS011;593;53.184;8.216;2023-02-12T14:10:28;11.65;;;7.00;;
1206;SDS011;593;53.184;8.216;2023-02-12T14:15:43;9.93;;;7.05;;
1206;SDS011;593;53.184;8.216;2023-02-12T14:23:34;14.15;;;6.53;;
1206;SDS011;593;53.184;8.216;2023-02-12T14:26:07;11.00;;;7.90;;
1206;SDS011;593;53.184;8.216;2023-02-12T14:33:45;10.20;;;7.17;;
1206;SDS011;593;53.184;8.216;2023-02-12T14:36:13;11.02;;;7.28;;
1206;SDS011;593;53.184;8.216;2023-02-12T14:41:23;8.43;;;6.33;;
1206;SDS011;593;53.184;8.216;2023-02-12T14:49:15;8.53;;;6.37;;
1206;SDS011;593;53.184;8.216;2023-02-12T14:51:53;9.90;;;6.45;;
1206;SDS011;593;53.184;8.216;2023-02-12T14:54:34;9.35;;;6.43;;
1206;SDS011;593;53.184;8.216;2023-02-12T14:57:17;7.50;;;6.23;;
1206;SDS011;593;53.184;8.216;2023-02-12T14:59:47;11.82;;;7.00;;
1206;SDS011;593;53.184;8.216;2023-02-12T15:02:17;13.43;;;7.43;;
1206;SDS011;593;53.184;8.216;2023-02-12T15:04:48;10.38;;;7.25;;
1206;SDS011;593;53.184;8.216;2023-02-12T15:07:16;12.68;;;7.53;;
1206;SDS011;593;53.184;8.216;2023-02-12T15:10:07;9.00;;;6.15;;
1206;SDS011;593;53.184;8.216;2023-02-12T15:12:50;8.88;;;6.25;;
1206;SDS011;593;53.184;8.216;2023-02-12T15:15:26;9.52;;;6.97;;
1206;SDS011;593;53.184;8.216;2023-02-12T15:17:58;10.27;;;7.30;;
1206;SDS011;593;53.184;8.216;2023-02-12T15:20:42;14.13;;;7.78;;
1206;SDS011;593;53.184;8.216;2023-02-12T15:25:56;13.73;;;9.07;;
1206;SDS011;593;53.184;8.216;2023-02-12T15:28:23;13.55;;;9.02;;
1206;SDS011;593;53.184;8.216;2023-02-12T15:30:57;12.40;;;8.18;;
1206;SDS011;593;53.184;8.216;2023-02-12T15:33:28;15.20;;;8.88;;
1206;SDS011;593;53.184;8.216;2023-02-12T15:35:56;12.30;;;7.50;;
1206;SDS011;593;53.184;8.216;2023-02-12T15:38:31;12.40;;;8.57;;
1206;SDS011;593;53.184;8.216;2023-02-12T15:40:59;13.32;;;8.70;;
1206;SDS011;593;53.184;8.216;2023-02-12T15:43:27;15.20;;;10.00;;
1206;SDS011;593;53.184;8.216;2023-02-12T15:45:55;11.25;;;8.75;;
1206;SDS011;593;53.184;8.216;2023-02-12T15:48:21;12.07;;;10.00;;
1206;SDS011;593;53.184;8.216;2023-02-12T15:50:59;15.38;;;10.43;;
1206;SDS011;593;53.184;8.216;2023-02-12T15:53:31;13.70;;;9.55;;
1206;SDS011;593;53.184;8.216;2023-02-12T15:55:59;13.00;;;10.00;;
1206;SDS011;593;53.184;8.216;2023-02-12T16:00:53;13.30;;;9.40;;
1206;SDS011;593;53.184;8.216;2023-02-12T16:03:25;11.45;;;8.68;;
1206;SDS011;593;53.184;8.216;2023-02-12T16:06:01;12.63;;;9.02;;
1206;SDS011;593;53.184;8.216;2023-02-12T16:08:28;16.50;;;11.90;;
1206;SDS011;593;53.184;8.216;2023-02-12T16:10:56;14.63;;;10.50;;
1206;SDS011;593;53.184;8.216;2023-02-12T16:13:28;15.33;;;10.53;;
1206;SDS011;593;53.184;8.216;2023-02-12T16:19:05;12.43;;;10.70;;
1206;SDS011;593;53.184;8.216;2023-02-12T16:21:41;13.63;;;10.38;;
1206;SDS011;593;53.184;8.216;2023-02-12T16:27:17;13.07;;;9.97;;
1206;SDS011;593;53.184;8.216;2023-02-12T16:29:48;18.23;;;11.05;;
1206;SDS011;593;53.184;8.216;2023-02-12T16:32:36;15.40;;;10.27;;
1206;SDS011;593;53.184;8.216;2023-02-12T16:42:39;13.20;;;9.80;;
1206;SDS011;593;53.184;8.216;2023-02-12T16:47:53;16.00;;;11.88;;
1206;SDS011;593;53.184;8.216;2023-02-12T16:50:22;15.63;;;12.20;;
1206;SDS011;593;53.184;8.216;2023-02-12T16:53:00;15.10;;;10.57;;
1206;SDS011;593;53.184;8.216;2023-02-12T16:55:30;13.53;;;10.40;;
1206;SDS011;593;53.184;8.216;2023-02-12T16:57:56;16.23;;;11.67;;
1206;SDS011;593;53.184;8.216;2023-02-12T17:00:21;15.60;;;12.03;;
1206;SDS011;593;53.184;8.216;2023-02-12T17:02:47;15.65;;;11.75;;
1206;SDS011;593;53.184;8.216;2023-02-12T17:05:14;16.83;;;12.23;;
1206;SDS011;593;53.184;8.216;2023-02-12T17:07:43;14.90;;;11.00;;
1206;SDS011;593;53.184;8.216;2023-02-12T17:10:13;16.57;;;12.17;;
1206;SDS011;593;53.184;8.216;2023-02-12T17:12:49;17.02;;;11.30;;
1206;SDS011;593;53.184;8.216;2023-02-12T17:15:59;19.00;;;11.85;;
1206;SDS011;593;53.184;8.216;2023-02-12T17:18:20;16.58;;;11.40;;
1206;SDS011;593;53.184;8.216;2023-02-12T17:20:48;18.65;;;12.68;;
1206;SDS011;593;53.184;8.216;2023-02-12T17:23:18;15.93;;;11.83;;
1206;SDS011;593;53.184;8.216;2023-02-12T17:25:44;18.47;;;11.80;;
1206;SDS011;593;53.184;8.216;2023-02-12T17:28:09;18.10;;;12.40;;
1206;SDS011;593;53.184;8.216;2023-02-12T17:30:35;13.10;;;11.73;;
1206;SDS011;593;53.184;8.216;2023-02-12T17:33:01;17.17;;;13.38;;
1206;SDS011;593;53.184;8.216;2023-02-12T17:35:27;14.15;;;12.23;;
1206;SDS011;593;53.184;8.216;2023-02-12T17:37:52;20.73;;;12.07;;
1206;SDS011;593;53.184;8.216;2023-02-12T17:40:18;18.37;;;10.80;;
1206;SDS011;593;53.184;8.216;2023-02-12T17:42:43;15.80;;;12.73;;
1206;SDS011;593;53.184;8.216;2023-02-12T17:45:18;16.40;;;12.13;;
1206;SDS011;593;53.184;8.216;2023-02-12T17:47:44;15.07;;;10.98;;
1206;SDS011;593;53.184;8.216;2023-02-12T17:50:11;15.68;;;10.95;;
1206;SDS011;593;53.184;8.216;2023-02-12T17:52:38;14.00;;;10.95;;
1206;SDS011;593;53.184;8.216;2023-02-12T17:55:04;15.07;;;10.97;;
1206;SDS011;593;53.184;8.216;2023-02-12T17:57:30;13.30;;;11.20;;
1206;SDS011;593;53.184;8.216;2023-02-12T17:59:56;14.50;;;11.17;;
1206;SDS011;593;53.184;8.216;2023-02-12T18:02:22;14.60;;;11.47;;
1206;SDS011;593;53.184;8.216;2023-02-12T18:04:47;13.00;;;10.83;;
1206;SDS011;593;53.184;8.216;2023-02-12T18:07:13;14.60;;;11.63;;
1206;SDS011;593;53.184;8.216;2023-02-12T18:09:38;14.70;;;10.87;;
1206;SDS011;593;53.184;8.216;2023-02-12T18:12:04;13.20;;;11.73;;
1206;SDS011;593;53.184;8.216;2023-02-12T18:14:30;13.40;;;11.83;;
1206;SDS011;593;53.184;8.216;2023-02-12T18:16:55;14.57;;;11.37;;
1206;SDS011;593;53.184;8.216;2023-02-12T18:19:21;16.23;;;11.90;;
1206;SDS011;593;53.184;8.216;2023-02-12T18:21:47;14.30;;;11.50;;